Naniwa Maru No.21 — JG5648 — position and weather

sailwx.info

Track history (hours):
 
Tides and Currents Weather Stations Pressure Air Temp Water Temp Dewpoint Dewpoint Depression Visibility Wind Speed Wind Dir Waves Ship Positions

Naniwa Maru No.21

Last reported at 2014-Jul-24 07:21 UTC. Time now 2014-Jul-25 09:08 UTC.
Position N 34°07' E 135°04'.

Length 71 m; draft 5.2 m.

Type: Tanker. MMSI: 431301595.

Date/timePositionNaut miles runAvg speedWind from/ knotsBaromVisibWave heightAir tempDewpointWater temp
2014-Jul-24 07:21N 34°07' E 135°04'1 0.3
2014-Jul-24 02:33N 34°08' E 135°05'  
2014-Jul-21 07:33N 34°07' E 135°04'3 0.7
2014-Jul-21 03:20N 34°07' E 135°08'1 1.3
2014-Jul-21 02:33N 34°08' E 135°07'0 0.1
2014-Jul-21 01:32N 34°08' E 135°06'0 0.0
2014-Jul-21 00:32N 34°08' E 135°06'0 0.0
2014-Jul-20 23:20N 34°08' E 135°06'0 0.0
2014-Jul-20 22:32N 34°08' E 135°06'3 3.2
2014-Jul-20 21:33N 34°08' E 135°03'23211.6
2014-Jul-20 01:32N 33°50' E 130°24'1212.1
2014-Jul-20 00:33N 33°40' E 130°17'7 7.0
2014-Jul-19 23:33N 33°37' E 130°24'0 0.0
2014-Jul-19 22:32N 33°37' E 130°24'0 0.0
2014-Jul-19 21:32N 33°37' E 130°24'0 0.0
2014-Jul-19 20:32N 33°37' E 130°24'0 0.0
2014-Jul-19 19:29N 33°37' E 130°24'0 0.0
2014-Jul-19 18:32N 33°37' E 130°24'0 0.0
2014-Jul-19 17:32N 33°37' E 130°24'0 0.0
2014-Jul-19 16:32N 33°37' E 130°24'0 0.0
2014-Jul-19 15:32N 33°37' E 130°24'0 0.0
2014-Jul-19 14:32N 33°37' E 130°24'0 0.0
2014-Jul-19 13:32N 33°37' E 130°24'0 0.0
2014-Jul-19 12:32N 33°37' E 130°24'0 0.0
2014-Jul-19 11:32N 33°37' E 130°24'0 0.0
2014-Jul-19 10:32N 33°37' E 130°24'0 0.0
2014-Jul-19 09:32N 33°37' E 130°24'0 0.0
2014-Jul-19 08:32N 33°37' E 130°24'0 0.0
2014-Jul-19 07:32N 33°37' E 130°24'0 0.0
2014-Jul-19 06:32N 33°37' E 130°24'0 0.0
2014-Jul-19 05:33N 33°37' E 130°24'1 1.1
2014-Jul-19 04:33N 33°37' E 130°23'1 1.0
2014-Jul-19 03:13N 33°37' E 130°21'0 0.0
2014-Jul-19 02:31N 33°37' E 130°21'2 2.2
2014-Jul-19 01:33N 33°38' E 130°19'4 3.6
2014-Jul-19 00:33N 33°36' E 130°23'0 0.0
2014-Jul-18 23:32N 33°36' E 130°23'0 0.0
2014-Jul-18 22:32N 33°36' E 130°23'0 0.0
2014-Jul-18 21:33N 33°36' E 130°23'2 1.7
2014-Jul-18 20:32N 33°38' E 130°21'0 0.1
2014-Jul-18 19:33N 33°38' E 130°21'0 0.0
2014-Jul-18 18:33N 33°38' E 130°21'0 0.1
2014-Jul-18 17:33N 33°38' E 130°21'0 0.0
2014-Jul-18 16:33N 33°38' E 130°21'0 0.0
2014-Jul-18 15:30N 33°38' E 130°21'0 0.2
2014-Jul-18 14:34N 33°38' E 130°21'10 9.8
2014-Jul-18 13:33N 33°47' E 130°18'5 0.2
2014-Jul-17 05:10N 33°50' E 130°24'913.7
2014-Jul-17 04:33N 33°43' E 130°17'9 8.7
2014-Jul-17 03:33N 33°36' E 130°23'0 0.0
2014-Jul-17 02:32N 33°36' E 130°23'0 0.0
2014-Jul-17 01:33N 33°36' E 130°23'0 0.0
2014-Jul-17 00:32N 33°36' E 130°23'0 0.0
2014-Jul-16 23:33N 33°36' E 130°23'2 1.6
2014-Jul-16 22:33N 33°37' E 130°21'0 0.0
2014-Jul-16 21:34N 33°37' E 130°21'0 0.0
2014-Jul-16 20:33N 33°37' E 130°21'0 0.0
2014-Jul-16 19:32N 33°37' E 130°21'0 0.0
2014-Jul-16 18:33N 33°37' E 130°21'0 0.0
2014-Jul-16 17:32N 33°37' E 130°21'0 0.0
2014-Jul-16 16:32N 33°37' E 130°21'0 0.1
2014-Jul-16 15:32N 33°37' E 130°21'0 0.0
2014-Jul-16 14:32N 33°37' E 130°21'0 0.0
2014-Jul-16 13:32N 33°37' E 130°21'0 0.0
2014-Jul-16 12:30N 33°37' E 130°21'0 0.0
2014-Jul-16 11:30N 33°37' E 130°21'0 0.0
2014-Jul-16 10:33N 33°37' E 130°21'0 0.0
2014-Jul-16 09:33N 33°37' E 130°21'0 0.0
2014-Jul-16 08:31N 33°37' E 130°21'0 0.0
2014-Jul-16 07:32N 33°37' E 130°21'0 0.0
2014-Jul-16 06:32N 33°37' E 130°21'0 0.0
2014-Jul-16 05:31N 33°37' E 130°21'0 0.0
2014-Jul-16 04:33N 33°37' E 130°21'0 0.1
2014-Jul-16 03:32N 33°37' E 130°21'0 0.0
2014-Jul-16 02:33N 33°37' E 130°21'0 0.1
2014-Jul-16 01:33N 33°37' E 130°21'0 0.0
2014-Jul-16 00:32N 33°37' E 130°21'0 0.1
2014-Jul-15 23:33N 33°37' E 130°21'0 0.0
2014-Jul-15 22:32N 33°37' E 130°21'0 0.0
2014-Jul-15 21:31N 33°37' E 130°21'0 0.0
2014-Jul-15 20:30N 33°37' E 130°21'0 0.0
2014-Jul-15 19:33N 33°37' E 130°21'0 0.0
2014-Jul-15 18:33N 33°37' E 130°21'0 0.0
2014-Jul-15 17:33N 33°37' E 130°21'0 0.3
2014-Jul-15 16:33N 33°38' E 130°21'10 9.8
2014-Jul-15 15:32N 33°47' E 130°18'  
Track history (hours):
 
Tides and Currents Weather Stations Pressure Air Temp Water Temp Dewpoint Dewpoint Depression Visibility Wind Speed Wind Dir Waves Ship Positions

Naniwa Maru No.21

Last reported at 2014-Jul-24 07:21 UTC. Time now 2014-Jul-25 09:08 UTC.
Position N 34°07' E 135°04'.

Length 71 m; draft 5.2 m.

Type: Tanker. MMSI: 431301595.

Date/timePositionNaut miles runAvg speedWind from/ knotsBaromVisibWave heightAir tempDewpointWater temp
2014-Jul-24 07:21N 34°07' E 135°04'1 0.3
2014-Jul-24 02:33N 34°08' E 135°05'  
2014-Jul-21 07:33N 34°07' E 135°04'3 0.7
2014-Jul-21 03:20N 34°07' E 135°08'1 1.3
2014-Jul-21 02:33N 34°08' E 135°07'0 0.1
2014-Jul-21 01:32N 34°08' E 135°06'0 0.0
2014-Jul-21 00:32N 34°08' E 135°06'0 0.0
2014-Jul-20 23:20N 34°08' E 135°06'0 0.0
2014-Jul-20 22:32N 34°08' E 135°06'3 3.2
2014-Jul-20 21:33N 34°08' E 135°03'23211.6
2014-Jul-20 01:32N 33°50' E 130°24'1212.1
2014-Jul-20 00:33N 33°40' E 130°17'7 7.0
2014-Jul-19 23:33N 33°37' E 130°24'0 0.0
2014-Jul-19 22:32N 33°37' E 130°24'0 0.0
2014-Jul-19 21:32N 33°37' E 130°24'0 0.0
2014-Jul-19 20:32N 33°37' E 130°24'0 0.0
2014-Jul-19 19:29N 33°37' E 130°24'0 0.0
2014-Jul-19 18:32N 33°37' E 130°24'0 0.0
2014-Jul-19 17:32N 33°37' E 130°24'0 0.0
2014-Jul-19 16:32N 33°37' E 130°24'0 0.0
2014-Jul-19 15:32N 33°37' E 130°24'0 0.0
2014-Jul-19 14:32N 33°37' E 130°24'0 0.0
2014-Jul-19 13:32N 33°37' E 130°24'0 0.0
2014-Jul-19 12:32N 33°37' E 130°24'0 0.0
2014-Jul-19 11:32N 33°37' E 130°24'0 0.0
2014-Jul-19 10:32N 33°37' E 130°24'0 0.0
2014-Jul-19 09:32N 33°37' E 130°24'0 0.0
2014-Jul-19 08:32N 33°37' E 130°24'0 0.0
2014-Jul-19 07:32N 33°37' E 130°24'0 0.0
2014-Jul-19 06:32N 33°37' E 130°24'0 0.0
2014-Jul-19 05:33N 33°37' E 130°24'1 1.1
2014-Jul-19 04:33N 33°37' E 130°23'1 1.0
2014-Jul-19 03:13N 33°37' E 130°21'0 0.0
2014-Jul-19 02:31N 33°37' E 130°21'2 2.2
2014-Jul-19 01:33N 33°38' E 130°19'4 3.6
2014-Jul-19 00:33N 33°36' E 130°23'0 0.0
2014-Jul-18 23:32N 33°36' E 130°23'0 0.0
2014-Jul-18 22:32N 33°36' E 130°23'0 0.0
2014-Jul-18 21:33N 33°36' E 130°23'2 1.7
2014-Jul-18 20:32N 33°38' E 130°21'0 0.1
2014-Jul-18 19:33N 33°38' E 130°21'0 0.0
2014-Jul-18 18:33N 33°38' E 130°21'0 0.1
2014-Jul-18 17:33N 33°38' E 130°21'0 0.0
2014-Jul-18 16:33N 33°38' E 130°21'0 0.0
2014-Jul-18 15:30N 33°38' E 130°21'0 0.2
2014-Jul-18 14:34N 33°38' E 130°21'10 9.8
2014-Jul-18 13:33N 33°47' E 130°18'5 0.2
2014-Jul-17 05:10N 33°50' E 130°24'913.7
2014-Jul-17 04:33N 33°43' E 130°17'9 8.7
2014-Jul-17 03:33N 33°36' E 130°23'0 0.0
2014-Jul-17 02:32N 33°36' E 130°23'0 0.0
2014-Jul-17 01:33N 33°36' E 130°23'0 0.0
2014-Jul-17 00:32N 33°36' E 130°23'0 0.0
2014-Jul-16 23:33N 33°36' E 130°23'2 1.6
2014-Jul-16 22:33N 33°37' E 130°21'0 0.0
2014-Jul-16 21:34N 33°37' E 130°21'0 0.0
2014-Jul-16 20:33N 33°37' E 130°21'0 0.0
2014-Jul-16 19:32N 33°37' E 130°21'0 0.0
2014-Jul-16 18:33N 33°37' E 130°21'0 0.0
2014-Jul-16 17:32N 33°37' E 130°21'0 0.0
2014-Jul-16 16:32N 33°37' E 130°21'0 0.1
2014-Jul-16 15:32N 33°37' E 130°21'0 0.0
2014-Jul-16 14:32N 33°37' E 130°21'0 0.0
2014-Jul-16 13:32N 33°37' E 130°21'0 0.0
2014-Jul-16 12:30N 33°37' E 130°21'0 0.0
2014-Jul-16 11:30N 33°37' E 130°21'0 0.0
2014-Jul-16 10:33N 33°37' E 130°21'0 0.0
2014-Jul-16 09:33N 33°37' E 130°21'0 0.0
2014-Jul-16 08:31N 33°37' E 130°21'0 0.0
2014-Jul-16 07:32N 33°37' E 130°21'0 0.0
2014-Jul-16 06:32N 33°37' E 130°21'0 0.0
2014-Jul-16 05:31N 33°37' E 130°21'0 0.0
2014-Jul-16 04:33N 33°37' E 130°21'0 0.1
2014-Jul-16 03:32N 33°37' E 130°21'0 0.0
2014-Jul-16 02:33N 33°37' E 130°21'0 0.1
2014-Jul-16 01:33N 33°37' E 130°21'0 0.0
2014-Jul-16 00:32N 33°37' E 130°21'0 0.1
2014-Jul-15 23:33N 33°37' E 130°21'0 0.0
2014-Jul-15 22:32N 33°37' E 130°21'0 0.0
2014-Jul-15 21:31N 33°37' E 130°21'0 0.0
2014-Jul-15 20:30N 33°37' E 130°21'0 0.0
2014-Jul-15 19:33N 33°37' E 130°21'0 0.0
2014-Jul-15 18:33N 33°37' E 130°21'0 0.0
2014-Jul-15 17:33N 33°37' E 130°21'0 0.3
2014-Jul-15 16:33N 33°38' E 130°21'10 9.8
2014-Jul-15 15:32N 33°47' E 130°18'  

Dump ship's entire track history